• Join FlightAware (Why Join?)
  • Login
  • US Flag 
12:16PM EDT


 

Airport Tracker/Info


-or-


 

Live Flight TrackerFlight Track Log ✈ CHH7748 ✈ 24-Jun-2013 ✈ ZWSH / KHG - ZWWW / URC

Flight Track Log - Related Links

Times and Time Zones

All times are in EDT time to prevent confusion due to time zone crossing. See the CHH7748 flight status page for this flight to view local times or setup timezone preferences in your user account.

Time Position Orientation Groundspeed Altitude Reporting Facility
EDT Latitude Longitude Course Direction KTS MPH feet Rate Location/Type
11:24PM 39.6086 76.1631 59° Northeast  Level Estimated
11:25PM 39.6737 76.3059 59° Northeast  Level Estimated
11:26PM 39.7387 76.4490 59° Northeast  Level Estimated
11:27PM 39.8035 76.5923 59° Northeast  Level Estimated
11:28PM 39.8681 76.7359 60° Northeast  Level Estimated
11:29PM 39.9325 76.8798 60° Northeast  Level Estimated
11:30PM 39.9968 77.0239 60° Northeast  Level Estimated
11:31PM 40.0609 77.1683 60° Northeast  Level Estimated
11:32PM 40.1248 77.3130 60° Northeast  Level Estimated
11:33PM 40.1885 77.4580 60° Northeast  Level Estimated
11:34PM 40.2520 77.6032 60° Northeast  Level Estimated
11:35PM 40.3154 77.7487 60° Northeast  Level Estimated
11:36PM 40.3786 77.8945 60° Northeast  Level Estimated
11:37PM 40.4416 78.0405 60° Northeast  Level Estimated
11:38PM 40.5044 78.1868 61° Northeast  Level Estimated
11:39PM 40.5670 78.3334 61° Northeast  Level Estimated
11:40PM 40.6295 78.4803 61° Northeast  Level Estimated
11:41PM 40.6917 78.6274 61° Northeast  Level Estimated
11:42PM 40.7538 78.7748 61° Northeast  Level Estimated
11:43PM 40.8157 78.9225 61° Northeast  Level Estimated
11:44PM 40.8773 79.0705 61° Northeast  Level Estimated
11:45PM 40.9389 79.2187 61° Northeast  Level Estimated
11:46PM 41.0002 79.3673 61° Northeast  Level Estimated
11:47PM 41.0613 79.5161 61° Northeast  Level Estimated
11:48PM 41.1222 79.6651 61° Northeast  Level Estimated
11:49PM 41.1829 79.8145 62° Northeast  Level Estimated
11:50PM 41.2435 79.9641 62° Northeast  Level Estimated
11:51PM 41.3038 80.1140 62° Northeast  Level Estimated
11:52PM 41.3640 80.2642 62° Northeast  Level Estimated
11:53PM 41.4240 80.4146 62° Northeast  Level Estimated
11:54PM 41.4837 80.5654 62° Northeast  Level Estimated
11:55PM 41.5433 80.7164 62° Northeast  Level Estimated
11:56PM 41.6026 80.8677 62° Northeast  Level Estimated
11:57PM 41.6618 81.0192 62° Northeast  Level Estimated
11:58PM 41.7208 81.1711 62° Northeast  Level Estimated
11:59PM 41.7795 81.3232 63° Northeast  Level Estimated
12:00AM 41.8381 81.4756 63° Northeast  Level Estimated
12:01AM 41.8965 81.6283 63° Northeast  Level Estimated
12:02AM 41.9547 81.7812 63° Northeast  Level Estimated
12:03AM 42.0126 81.9345 63° Northeast  Level Estimated
12:04AM 42.0704 82.0880 63° Northeast  Level Estimated
12:05AM 42.1279 82.2418 63° Northeast  Level Estimated
12:06AM 42.1853 82.3959 63° Northeast  Level Estimated
12:07AM 42.2424 82.5502 63° Northeast  Level Estimated
12:08AM 42.2993 82.7049 63° Northeast  Level Estimated
12:09AM 42.3560 82.8598 64° Northeast  Level Estimated
12:10AM 42.4126 83.0150 64° Northeast  Level Estimated
12:11AM 42.4689 83.1704 64° Northeast  Level Estimated
12:12AM 42.5249 83.3262 64° Northeast  Level Estimated
12:13AM 42.5808 83.4822 64° Northeast  Level Estimated
12:14AM 42.6365 83.6385 64° Northeast  Level Estimated
12:15AM 42.6920 83.7951 64° Northeast  Level Estimated
12:16AM 42.7472 83.9520 64° Northeast  Level Estimated
12:17AM 42.8022 84.1091 64° Northeast  Level Estimated
12:18AM 42.8570 84.2666 65° Northeast  Level Estimated
12:19AM 42.9116 84.4243 65° Northeast  Level Estimated
12:20AM 42.9660 84.5823 65° Northeast  Level Estimated
12:21AM 43.0202 84.7405 65° Northeast  Level Estimated
12:22AM 43.0741 84.8991 65° Northeast  Level Estimated
12:23AM 43.1279 85.0579 65° Northeast  Level Estimated
12:24AM 43.1814 85.2170 65° Northeast  Level Estimated
12:25AM 43.2347 85.3764 65° Northeast  Level Estimated
12:26AM 43.2877 85.5360 65° Northeast  Level Estimated
12:27AM 43.3406 85.6960 66° East  Level Estimated
12:28AM 43.3932 85.8562 66° East  Level Estimated
12:29AM 43.4456 86.0167 66° East  Level Estimated
12:30AM 43.4977 86.1775 66° East  Level Estimated
12:31AM 43.5497 86.3385 66° East  Level Estimated
12:32AM 43.6014 86.4998 66° East  Level Estimated
12:33AM 43.6529 86.6614 66° East  Level Estimated
12:34AM 43.7042 86.8233 66° East  Level Estimated
12:35AM 43.7552 86.9855 66° East  Level Estimated
12:36AM 43.8060 87.1479 67° East  Level Estimated
12:37AM 43.8566 87.3106 67° East  Level Estimated
12:38AM 43.9069 87.4736 67° East  Level Estimated
12:39AM 43.9071 87.4742 66° East  Level Estimated
12:40AM 43.9071 87.4742 144° Southeast  Level Estimated
12:41AM 43.9071 87.4742 144° Southeast  Level Estimated
12:42AM 43.9071 87.4742 144° Southeast  Level Estimated
12:43AM 43.9071 87.4742 144° Southeast  Level Estimated
12:44AM 43.9071 87.4742 144° Southeast  Level Estimated
12:45AM 43.9071 87.4742 144° Southeast  Level Estimated
12:46AM 43.9071 87.4742 144° Southeast  Level Estimated
12:47AM 43.9071 87.4742 144° Southeast  Level Estimated
12:48AM 43.9071 87.4742 144° Southeast  Level Estimated
12:49AM 43.9071 87.4742 144° Southeast  Level Estimated
12:50AM 43.9071 87.4742 144° Southeast  Level Estimated
12:51AM 43.9071 87.4742 144° Southeast  Level Estimated
12:52AM 43.9071 87.4742 144° Southeast  Level Estimated
12:53AM 43.9071 87.4742 144° Southeast  Level Estimated
12:54AM 43.9071 87.4742 144° Southeast  Level Estimated